createdAt,value
2022-08-10T00:01:52.252Z,42.00
2022-08-10T00:04:24.020Z,40.00
2022-08-10T00:06:55.426Z,41.75
2022-08-10T00:09:23.601Z,43.00
2022-08-10T00:11:51.116Z,41.00
2022-08-10T00:14:18.213Z,40.50
2022-08-10T00:16:52.532Z,41.25
2022-08-10T00:19:19.502Z,40.00
2022-08-10T00:21:46.851Z,40.25
2022-08-10T00:24:14.331Z,39.75
2022-08-10T00:27:51.898Z,41.50
2022-08-10T00:29:28.179Z,41.00
2022-08-10T00:31:58.154Z,43.50
2022-08-10T00:34:31.982Z,42.00
2022-08-10T00:37:00.028Z,41.50
2022-08-10T00:39:28.065Z,40.75
2022-08-10T00:42:01.689Z,40.75
2022-08-10T00:44:39.965Z,41.50
2022-08-10T00:47:10.385Z,41.00
2022-08-10T00:49:55.050Z,41.50
2022-08-10T00:52:22.484Z,41.00
2022-08-10T00:54:49.457Z,40.50
2022-08-10T00:57:18.714Z,40.75
2022-08-10T00:59:58.727Z,41.00
2022-08-10T01:02:31.929Z,40.00
2022-08-10T01:05:02.870Z,41.00
2022-08-10T01:07:48.869Z,42.50
2022-08-10T01:10:52.139Z,40.50
2022-08-10T01:13:33.201Z,41.00
2022-08-10T01:16:06.082Z,41.00
2022-08-10T01:18:51.405Z,40.00
2022-08-10T01:21:25.574Z,41.00
2022-08-10T01:24:30.560Z,40.00
2022-08-10T01:27:26.967Z,40.00
2022-08-10T01:30:06.472Z,40.50
2022-08-10T01:32:40.950Z,40.00
2022-08-10T01:35:11.015Z,42.00
2022-08-10T01:37:54.912Z,41.00
2022-08-10T01:40:25.928Z,41.00
2022-08-10T01:42:57.416Z,40.75
2022-08-10T01:45:45.526Z,43.00
2022-08-10T01:48:20.535Z,41.00
2022-08-10T01:50:58.924Z,41.75
2022-08-10T01:53:41.135Z,41.00
2022-08-10T01:56:12.541Z,43.00
2022-08-10T01:58:40.872Z,41.00
2022-08-10T02:01:11.051Z,42.00
2022-08-10T02:04:04.427Z,42.00
2022-08-10T02:06:56.048Z,41.00
2022-08-10T02:09:29.297Z,40.00
2022-08-10T02:12:07.191Z,40.00
2022-08-10T02:15:03.573Z,42.00
2022-08-10T02:17:59.748Z,41.00
2022-08-10T02:20:31.586Z,40.00
2022-08-10T02:23:02.995Z,41.50
2022-08-10T02:25:41.737Z,40.00
2022-08-10T02:28:30.086Z,42.00
2022-08-10T02:31:01.939Z,41.00
2022-08-10T02:33:30.849Z,41.00
2022-08-10T02:36:01.805Z,41.25
2022-08-10T02:38:58.686Z,41.00
2022-08-10T02:45:01.239Z,41.00
2022-08-10T02:45:24.705Z,42.00
2022-08-10T02:47:51.694Z,42.00
2022-08-10T02:50:29.445Z,41.00
2022-08-10T02:53:56.609Z,42.00
2022-08-10T02:56:25.346Z,41.00
2022-08-10T02:59:17.503Z,41.00
2022-08-10T03:01:49.925Z,41.00
2022-08-10T03:04:21.582Z,42.00
2022-08-10T03:07:11.731Z,44.00
2022-08-10T03:09:40.889Z,41.00
2022-08-10T03:12:35.886Z,41.50
2022-08-10T03:14:58.915Z,42.00
2022-08-10T03:17:27.085Z,41.50
2022-08-10T03:20:34.626Z,42.00
2022-08-10T03:22:45.297Z,42.50
2022-08-10T03:25:13.952Z,44.00
2022-08-10T03:27:42.835Z,43.00
2022-08-10T03:30:28.641Z,42.00
2022-08-10T03:32:58.409Z,42.00
2022-08-10T03:35:27.697Z,44.00
2022-08-10T03:37:59.456Z,42.50
2022-08-10T03:40:44.937Z,43.75
2022-08-10T03:43:19.672Z,42.50
2022-08-10T03:45:54.865Z,43.00
2022-08-10T03:48:32.212Z,43.00
2022-08-10T03:51:13.099Z,43.00
2022-08-10T03:54:06.230Z,43.75
2022-08-10T03:56:31.951Z,42.25
2022-08-10T03:58:59.981Z,42.00
2022-08-10T04:02:43.348Z,43.00
2022-08-10T04:04:19.257Z,43.50
2022-08-10T04:06:51.436Z,44.75
2022-08-10T04:09:21.748Z,46.00
2022-08-10T04:11:48.565Z,46.00
2022-08-10T04:14:38.632Z,44.50
2022-08-10T04:17:02.465Z,46.00
2022-08-10T04:19:35.580Z,47.00
2022-08-10T04:22:14.082Z,46.50
2022-08-10T04:24:43.105Z,46.00
2022-08-10T04:27:13.650Z,45.50
2022-08-10T04:29:41.479Z,46.50
2022-08-10T04:32:09.925Z,44.25
2022-08-10T04:34:40.719Z,44.00
2022-08-10T04:37:10.679Z,45.25
2022-08-10T04:39:38.004Z,44.00
2022-08-10T04:42:05.846Z,44.50
2022-08-10T04:44:33.994Z,43.75
2022-08-10T04:47:00.789Z,43.00
2022-08-10T04:49:55.592Z,44.00
2022-08-10T04:52:14.723Z,42.00
2022-08-10T04:54:41.930Z,42.50
2022-08-10T04:57:09.267Z,42.00
2022-08-10T04:59:36.543Z,42.00
2022-08-10T05:02:27.087Z,41.25
2022-08-10T05:04:50.392Z,43.00
2022-08-10T05:07:18.154Z,41.50
2022-08-10T05:10:02.468Z,41.50
2022-08-10T05:12:38.570Z,41.00
2022-08-10T05:15:16.369Z,41.50
2022-08-10T05:18:06.802Z,41.75
2022-08-10T05:20:30.452Z,41.00
2022-08-10T05:22:57.381Z,41.00
2022-08-10T05:25:24.317Z,41.00
2022-08-10T05:27:52.395Z,40.00
2022-08-10T05:30:22.089Z,39.00
2022-08-10T05:32:57.755Z,39.25
2022-08-10T05:35:51.780Z,40.25
2022-08-10T05:38:17.904Z,42.00
2022-08-10T05:40:46.452Z,40.00
2022-08-10T05:43:19.580Z,40.00
2022-08-10T05:46:19.636Z,41.00
2022-08-10T05:48:54.459Z,41.50
2022-08-10T05:51:28.103Z,41.00
2022-08-10T05:54:00.956Z,41.00
2022-08-10T05:56:55.678Z,41.50
2022-08-10T06:00:30.732Z,42.50
2022-08-10T06:02:31.785Z,42.00
2022-08-10T06:05:04.580Z,41.00
2022-08-10T06:07:32.748Z,42.00
2022-08-10T06:10:01.978Z,42.00
2022-08-10T06:12:30.683Z,41.75
2022-08-10T06:15:05.050Z,43.00
2022-08-10T06:17:33.351Z,43.00
2022-08-10T06:20:01.427Z,44.00
2022-08-10T06:22:30.332Z,43.00
2022-08-10T06:25:31.936Z,43.00
2022-08-10T06:28:01.390Z,44.00
2022-08-10T06:30:29.722Z,43.75
2022-08-10T06:32:59.891Z,42.00
2022-08-10T06:35:30.918Z,42.75
2022-08-10T06:38:06.080Z,44.00
2022-08-10T06:40:37.839Z,44.00
2022-08-10T06:43:14.497Z,44.00
2022-08-10T06:45:45.943Z,42.00
2022-08-10T06:49:00.718Z,42.00
2022-08-10T06:51:34.323Z,42.00
2022-08-10T06:54:11.490Z,42.00
2022-08-10T06:57:01.812Z,43.00
2022-08-10T06:59:44.985Z,43.00
2022-08-10T07:02:25.687Z,42.00
2022-08-10T07:04:59.274Z,42.50
2022-08-10T07:07:30.121Z,43.00
2022-08-10T07:09:58.794Z,43.00
2022-08-10T07:13:04.699Z,43.00
2022-08-10T07:16:00.372Z,41.00
2022-08-10T07:18:20.715Z,43.50
2022-08-10T07:21:16.468Z,44.00
2022-08-10T07:23:57.162Z,44.00
2022-08-10T07:26:57.112Z,43.00
2022-08-10T07:29:54.042Z,43.00
2022-08-10T07:32:15.304Z,43.00
2022-08-10T07:34:44.470Z,42.00
2022-08-10T07:37:14.570Z,44.75
2022-08-10T07:40:03.595Z,44.00
2022-08-10T07:42:33.714Z,44.00
2022-08-10T07:45:03.028Z,43.00
2022-08-10T07:47:53.803Z,43.50
2022-08-10T07:50:45.175Z,45.00
2022-08-10T07:53:23.840Z,44.00
2022-08-10T07:56:45.815Z,43.00
2022-08-10T07:59:22.980Z,43.25
2022-08-10T08:01:55.844Z,42.50
2022-08-10T08:04:25.165Z,42.00
2022-08-10T08:06:53.566Z,44.00
2022-08-10T08:09:22.101Z,44.00
2022-08-10T08:11:53.077Z,44.50
2022-08-10T08:14:21.663Z,44.00
2022-08-10T08:16:52.161Z,46.00
2022-08-10T08:19:26.727Z,45.75
2022-08-10T08:24:08.542Z,44.50
2022-08-10T08:24:43.894Z,43.50
2022-08-10T08:27:13.829Z,45.00
2022-08-10T08:29:46.231Z,43.00
2022-08-10T08:32:17.723Z,44.00
2022-08-10T08:34:46.222Z,43.00
2022-08-10T08:38:26.539Z,44.50
2022-08-10T08:40:13.593Z,44.50
2022-08-10T08:43:18.012Z,44.00
2022-08-10T08:46:02.667Z,44.00
2022-08-10T08:48:47.597Z,46.25
2022-08-10T08:52:07.903Z,46.00
2022-08-10T08:54:23.880Z,45.75
2022-08-10T08:56:59.155Z,45.50
2022-08-10T09:00:03.468Z,45.00
2022-08-10T09:03:02.871Z,45.00
2022-08-10T09:06:01.009Z,45.00
2022-08-10T09:09:03.121Z,45.00
2022-08-10T09:11:54.167Z,44.00
2022-08-10T09:14:58.655Z,43.00
2022-08-10T09:17:28.445Z,43.00
2022-08-10T09:20:25.427Z,44.00
2022-08-10T09:23:00.026Z,44.00
2022-08-10T09:25:34.857Z,44.75
2022-08-10T09:28:07.278Z,44.00
2022-08-10T09:30:38.214Z,44.00
2022-08-10T09:36:25.985Z,45.25
2022-08-10T09:36:33.328Z,46.00
2022-08-10T09:40:12.391Z,45.00
2022-08-10T09:42:42.582Z,44.00
2022-08-10T09:45:20.092Z,45.00
2022-08-10T09:48:10.734Z,45.00
2022-08-10T09:51:28.018Z,44.00
2022-08-10T09:53:43.997Z,45.00
2022-08-10T09:56:36.543Z,46.00
2022-08-10T10:00:01.251Z,44.75
2022-08-10T10:02:17.939Z,45.00
2022-08-10T10:05:11.136Z,45.00
2022-08-10T10:08:28.919Z,45.00
2022-08-10T10:11:12.218Z,45.25
2022-08-10T10:14:16.264Z,45.00
2022-08-10T10:16:48.947Z,44.50
2022-08-10T10:19:43.097Z,44.00
2022-08-10T10:22:32.769Z,45.00
2022-08-10T10:25:50.151Z,44.50
2022-08-10T10:29:15.177Z,44.75
2022-08-10T10:31:56.586Z,46.50
2022-08-10T10:34:40.788Z,45.75
2022-08-10T10:37:10.113Z,46.50
2022-08-10T10:39:42.375Z,46.25
2022-08-10T10:42:45.286Z,46.00
2022-08-10T10:45:19.461Z,46.00
2022-08-10T10:48:07.809Z,45.50
2022-08-10T10:51:08.434Z,46.50
2022-08-10T10:54:08.974Z,46.25
2022-08-10T10:56:39.969Z,46.00
2022-08-10T10:59:55.203Z,47.00
2022-08-10T11:02:42.230Z,46.00
2022-08-10T11:05:15.224Z,46.50
2022-08-10T11:07:58.518Z,46.00
2022-08-10T11:10:46.244Z,47.00
2022-08-10T11:14:27.631Z,46.00
2022-08-10T11:16:39.122Z,46.00
2022-08-10T11:19:23.750Z,45.25
2022-08-10T11:22:21.104Z,45.00
2022-08-10T11:25:28.242Z,45.00
2022-08-10T11:28:02.431Z,46.00
2022-08-10T11:30:52.479Z,45.00
2022-08-10T11:34:11.379Z,47.00
2022-08-10T11:37:03.116Z,46.00
2022-08-10T11:39:50.116Z,45.75
2022-08-10T11:42:44.524Z,45.00
2022-08-10T11:45:29.171Z,45.75
2022-08-10T11:48:11.512Z,47.25
2022-08-10T11:51:03.006Z,46.00
2022-08-10T11:53:53.683Z,45.00
2022-08-10T11:57:01.946Z,45.50
2022-08-10T11:59:33.885Z,46.50
2022-08-10T12:02:06.555Z,46.00
2022-08-10T12:04:35.822Z,46.00
2022-08-10T12:08:54.813Z,44.75
2022-08-10T12:10:11.175Z,47.50
2022-08-10T12:12:50.820Z,47.25
2022-08-10T12:15:36.853Z,46.00
2022-08-10T12:18:13.006Z,46.00
2022-08-10T12:20:43.928Z,45.50
2022-08-10T12:23:17.604Z,45.75
2022-08-10T12:25:56.255Z,45.00
2022-08-10T12:29:03.706Z,45.00
2022-08-10T12:31:40.077Z,45.50
2022-08-10T12:34:22.653Z,46.00
2022-08-10T12:37:06.906Z,45.00
2022-08-10T12:39:43.785Z,45.75
2022-08-10T12:42:34.889Z,45.25
2022-08-10T12:45:29.274Z,46.25
2022-08-10T12:48:01.482Z,46.50
2022-08-10T12:50:41.765Z,47.00
2022-08-10T12:53:36.567Z,45.50
2022-08-10T12:56:06.149Z,46.25
2022-08-10T12:58:59.193Z,46.00
2022-08-10T13:02:06.774Z,47.25
2022-08-10T13:04:34.879Z,46.75
2022-08-10T13:07:04.960Z,46.50
2022-08-10T13:09:33.479Z,45.00
2022-08-10T13:12:37.045Z,46.00
2022-08-10T13:15:25.339Z,46.00
2022-08-10T13:17:55.763Z,46.00
2022-08-10T13:20:28.401Z,46.00
2022-08-10T13:22:59.058Z,46.00
2022-08-10T13:25:31.976Z,45.50
2022-08-10T13:28:37.199Z,46.00
2022-08-10T13:30:54.113Z,47.00
2022-08-10T13:34:40.830Z,46.00
2022-08-10T13:36:20.707Z,46.00
2022-08-10T13:38:49.505Z,46.00
2022-08-10T13:41:18.416Z,45.00
2022-08-10T13:43:54.693Z,46.00
2022-08-10T13:46:59.837Z,45.75
2022-08-10T13:49:29.023Z,44.00
2022-08-10T13:51:58.561Z,44.00
2022-08-10T13:54:36.127Z,46.00
2022-08-10T13:57:04.414Z,45.25
2022-08-10T14:00:34.597Z,45.00
2022-08-10T14:02:29.522Z,46.00
2022-08-10T14:04:58.556Z,46.00
2022-08-10T14:07:27.733Z,45.00
2022-08-10T14:10:04.666Z,45.50
2022-08-10T14:12:35.774Z,46.00
2022-08-10T14:15:09.766Z,46.00
2022-08-10T14:18:05.500Z,45.00
2022-08-10T14:20:40.309Z,45.00
2022-08-10T14:23:13.146Z,46.00
2022-08-10T14:25:53.728Z,45.75
2022-08-10T14:28:36.532Z,45.00
2022-08-10T14:31:08.770Z,46.00
2022-08-10T14:33:39.892Z,44.00
2022-08-10T14:36:22.036Z,44.00
2022-08-10T14:38:56.589Z,46.50
2022-08-10T14:42:01.491Z,45.50
2022-08-10T14:44:43.867Z,45.50
2022-08-10T14:47:52.533Z,47.00
2022-08-10T14:50:07.598Z,45.50
2022-08-10T14:52:56.820Z,47.00
2022-08-10T14:55:27.431Z,45.00
2022-08-10T14:58:20.244Z,44.00
2022-08-10T15:00:50.933Z,43.00
2022-08-10T15:04:02.147Z,44.00
2022-08-10T15:06:30.863Z,45.00
2022-08-10T15:09:20.215Z,45.25
2022-08-10T15:12:15.203Z,46.00
2022-08-10T15:14:45.033Z,46.00
2022-08-10T15:17:26.607Z,46.00
2022-08-10T15:20:20.852Z,46.00
2022-08-10T15:22:59.601Z,47.00
2022-08-10T15:25:29.099Z,45.00
2022-08-10T15:28:16.700Z,44.00
2022-08-10T15:30:47.074Z,43.50
2022-08-10T15:33:57.036Z,44.00
2022-08-10T15:36:18.565Z,44.00
2022-08-10T15:38:49.638Z,43.50
2022-08-10T15:41:57.434Z,44.00
2022-08-10T15:44:37.668Z,44.00
2022-08-10T15:47:15.452Z,45.00
2022-08-10T15:49:54.155Z,43.50
2022-08-10T15:53:00.770Z,43.00
2022-08-10T15:55:43.918Z,45.00
2022-08-10T15:58:39.342Z,45.00
2022-08-10T16:02:04.014Z,44.00
2022-08-10T16:04:15.803Z,44.75
2022-08-10T16:07:00.914Z,46.00
2022-08-10T16:10:23.637Z,45.00
2022-08-10T16:12:59.862Z,46.00
2022-08-10T16:15:32.853Z,44.00
2022-08-10T16:18:12.907Z,44.00
2022-08-10T16:20:53.553Z,44.00
2022-08-10T16:26:56.516Z,42.50
2022-08-10T16:29:28.532Z,44.00
2022-08-10T16:32:01.818Z,42.75
2022-08-10T16:34:33.118Z,44.00
2022-08-10T16:37:12.589Z,44.00
2022-08-10T16:41:20.315Z,43.00
2022-08-10T16:43:25.903Z,43.00
2022-08-10T16:46:23.662Z,44.00
2022-08-10T16:49:00.567Z,44.00
2022-08-10T16:51:28.024Z,43.00
2022-08-10T16:54:01.698Z,43.00
2022-08-10T16:56:48.803Z,43.00
2022-08-10T16:59:24.696Z,43.00
2022-08-10T17:01:59.927Z,42.00
2022-08-10T17:04:29.039Z,43.00
2022-08-10T17:07:03.338Z,43.00
2022-08-10T17:09:33.782Z,44.00
2022-08-10T17:12:06.658Z,43.00
2022-08-10T17:14:37.604Z,43.00
2022-08-10T17:17:21.366Z,42.00
2022-08-10T17:19:49.214Z,41.25
2022-08-10T17:22:23.887Z,43.00
2022-08-10T17:25:12.519Z,43.00
2022-08-10T17:28:04.480Z,42.00
2022-08-10T17:30:34.241Z,42.00
2022-08-10T17:33:12.380Z,42.00
2022-08-10T17:35:42.084Z,43.00
2022-08-10T17:38:18.137Z,41.00
2022-08-10T17:40:55.110Z,41.00
2022-08-10T17:43:46.228Z,42.00
2022-08-10T17:46:36.363Z,42.00
2022-08-10T17:49:13.178Z,41.00
2022-08-10T17:51:42.522Z,42.00
2022-08-10T17:54:24.070Z,43.00
2022-08-10T17:56:52.634Z,42.00
2022-08-10T17:59:24.786Z,42.00
2022-08-10T18:02:19.470Z,40.50
2022-08-10T18:04:54.367Z,40.00
2022-08-10T18:07:28.255Z,40.25
2022-08-10T18:10:00.481Z,40.75
2022-08-10T18:12:38.026Z,40.50
2022-08-10T18:15:13.955Z,41.00
2022-08-10T18:17:45.938Z,41.00
2022-08-10T18:20:19.787Z,40.00
2022-08-10T18:22:50.571Z,40.00
2022-08-10T18:25:41.801Z,41.00
2022-08-10T18:28:14.941Z,39.75
2022-08-10T18:30:49.944Z,39.00
2022-08-10T18:33:20.749Z,40.00
2022-08-10T18:35:49.716Z,39.00
2022-08-10T18:38:18.370Z,41.50
2022-08-10T18:40:59.345Z,42.00
2022-08-10T18:44:06.567Z,39.00
2022-08-10T18:46:50.736Z,39.50
2022-08-10T18:49:32.356Z,38.50
2022-08-10T18:52:30.838Z,39.00
2022-08-10T18:55:14.416Z,39.00
2022-08-10T18:58:08.825Z,39.00
2022-08-10T19:00:50.943Z,40.50
2022-08-10T19:03:57.658Z,39.00
2022-08-10T19:06:51.688Z,39.00
2022-08-10T19:09:46.823Z,41.00
2022-08-10T19:12:30.052Z,41.00
2022-08-10T19:15:25.829Z,43.00
2022-08-10T19:18:31.576Z,40.00
2022-08-10T19:21:04.498Z,40.00
2022-08-10T19:24:00.256Z,40.50
2022-08-10T19:26:44.015Z,40.50
2022-08-10T19:30:09.589Z,40.00
2022-08-10T19:32:58.933Z,40.00
2022-08-10T19:36:03.251Z,42.00
2022-08-10T19:39:13.247Z,40.00
2022-08-10T19:42:31.680Z,41.75
2022-08-10T19:45:06.516Z,41.00
2022-08-10T19:47:42.457Z,40.50
2022-08-10T19:50:29.240Z,40.25
2022-08-10T19:53:09.252Z,39.00
2022-08-10T19:55:49.070Z,40.00
2022-08-10T19:58:26.452Z,40.00
2022-08-10T20:00:57.887Z,40.50
2022-08-10T20:03:43.859Z,40.00
2022-08-10T20:06:19.880Z,39.00
2022-08-10T20:08:47.256Z,40.00
2022-08-10T20:11:46.267Z,40.50
2022-08-10T20:14:25.637Z,42.00
2022-08-10T20:17:02.480Z,41.00
2022-08-10T20:19:52.403Z,40.25
2022-08-10T20:22:29.442Z,39.75
2022-08-10T20:25:20.830Z,40.50
2022-08-10T20:28:24.696Z,39.00
2022-08-10T20:31:06.365Z,39.00
2022-08-10T20:33:55.424Z,39.25
2022-08-10T20:36:45.821Z,39.00
2022-08-10T20:39:33.867Z,40.00
2022-08-10T20:42:20.013Z,41.00
2022-08-10T20:45:02.881Z,39.00
2022-08-10T20:48:00.477Z,38.00
2022-08-10T20:50:48.041Z,39.50
2022-08-10T20:53:17.780Z,39.00
2022-08-10T20:56:03.728Z,39.50
2022-08-10T20:59:09.122Z,39.75
2022-08-10T21:02:07.482Z,40.00
2022-08-10T21:04:43.455Z,39.00
2022-08-10T21:07:59.885Z,39.00
2022-08-10T21:10:20.410Z,41.25
2022-08-10T21:13:01.382Z,41.00
2022-08-10T21:15:55.650Z,40.00
2022-08-10T21:18:45.734Z,40.00
2022-08-10T21:21:44.392Z,39.00
2022-08-10T21:24:52.313Z,39.00
2022-08-10T21:27:56.083Z,39.00
2022-08-10T21:30:51.056Z,39.00
2022-08-10T21:33:43.309Z,40.00
2022-08-10T21:36:20.573Z,40.00
2022-08-10T21:42:46.074Z,40.00
2022-08-10T21:45:59.561Z,40.25
2022-08-10T21:48:57.833Z,40.00
2022-08-10T21:52:00.330Z,41.00
2022-08-10T21:55:03.197Z,41.00
2022-08-10T21:58:05.292Z,41.00
2022-08-10T22:00:33.961Z,40.50
2022-08-10T22:03:10.098Z,39.50
2022-08-10T22:05:39.958Z,41.25
2022-08-10T22:08:17.123Z,41.50
2022-08-10T22:10:50.557Z,41.50
2022-08-10T22:13:24.690Z,41.00
2022-08-10T22:16:09.686Z,41.00
2022-08-10T22:19:01.356Z,41.00
2022-08-10T22:21:45.243Z,42.00
2022-08-10T22:24:56.698Z,41.00
2022-08-10T22:27:46.491Z,41.00
2022-08-10T22:30:26.362Z,43.00
2022-08-10T22:31:25.014Z,40.00
2022-08-10T22:33:21.936Z,41.00
2022-08-10T22:36:23.834Z,42.00
2022-08-10T22:38:56.631Z,43.00
2022-08-10T22:41:47.780Z,44.00
2022-08-10T22:44:19.030Z,43.00
2022-08-10T22:46:46.693Z,42.00
2022-08-10T22:49:25.744Z,42.25
2022-08-10T22:52:14.131Z,42.50
2022-08-10T22:54:57.261Z,42.50
2022-08-10T22:57:24.887Z,42.00
2022-08-10T23:00:16.860Z,42.00
2022-08-10T23:02:56.169Z,41.50
2022-08-10T23:05:32.246Z,42.50
2022-08-10T23:08:08.160Z,49.50
2022-08-10T23:10:42.440Z,52.25
2022-08-10T23:13:35.837Z,47.25
2022-08-10T23:16:27.415Z,45.00
2022-08-10T23:18:59.061Z,42.75
2022-08-10T23:22:04.774Z,42.00
2022-08-10T23:24:35.087Z,44.00
2022-08-10T23:27:12.415Z,41.50
2022-08-10T23:30:10.632Z,41.00
2022-08-10T23:32:36.189Z,42.00
2022-08-10T23:36:30.966Z,42.75
2022-08-10T23:37:59.796Z,41.00
2022-08-10T23:40:27.412Z,42.75
2022-08-10T23:42:58.503Z,45.00
2022-08-10T23:45:52.562Z,42.00
2022-08-10T23:48:22.558Z,42.00
2022-08-10T23:51:02.590Z,41.00
2022-08-10T23:53:36.198Z,44.00
2022-08-10T23:56:12.790Z,41.00
2022-08-10T23:58:43.530Z,41.00
